Aeroporto :
LOGIN :

Iscrizione | Disclaimer

   EN    FR    IT 

 










Sommario :    VFR   VFR Marginale   IFR   IFR Intensivo   IFR Molto Intensivo
Visibilità : 
Base nubi : 
>= 8 km
>= 3000ft
5 / 8 km
1000 / 3000 ft
1500m / 5 km
500 / 1000 ft
800 / 1500m
200 / 500 ft
< 800m
< 200 ft
Simboli :   Temporali  Nebbia  Neve Forte  Precipitazioni Forti  Vento > 20 kt
SIGMETs :   Varie  Temporali  Ghiacco  Turbolenza  Onda orograficha  Ceneri Vulcaniche






- Altitudine del aeroporto : 302 ft


LFPM - Melun Villaroche

ULTIMO METAR :
  • 301000Z AUTO VRB02KT 5000 BR OVC007 00/M01 Q1029

METARs OBSOLETI :
  • 300930Z AUTO VRB01KT 5000 BR OVC008 M00/M01 Q1029
  • 300900Z AUTO VRB02KT 3900 BR OVC008 M00/M01 Q1029
  • 300830Z AUTO 17001KT 3700 BR OVC008 M01/M01 Q1029
  • 300800Z AUTO 17001KT 3400 BR BKN008 M01/M02 Q1028
  • 300730Z AUTO 32003KT 3200 BR BKN009 M02/M03 Q1028

Previsioni scadute.
ATIS : +33 1 64 14 28 44



MetMap, La meteo Aeronautica in un colpo d'occhio ! - Copyright ORBIFLY Dicembre 2007 - Disclaimer

ORBIFLY MET'MAP TEAM :

Programmazione e sviluppo : Alexandra Zaïnal
Concezione : Baudouin d'Aumeries
Aiuto per la programmazione : Marc-Olivier Méhu
Supporto tecnico e logistico : Manuel Goepfert
Aiuto per la traduzione : Arnaldo La Scala

Contatto : metmap@orbifly.com




FONTI E CREDITI :

   NOAA